sensor_id;sensor_type;location;lat;lon;timestamp;temperature;humidity
67862;DHT22;54665;51.462;6.698;2023-07-13T00:01:49;15.17;76.38
67862;DHT22;54665;51.462;6.698;2023-07-13T00:03:49;15.27;75.56
67862;DHT22;54665;51.462;6.698;2023-07-13T00:05:57;15.20;76.08
67862;DHT22;54665;51.462;6.698;2023-07-13T00:07:58;15.17;76.13
67862;DHT22;54665;51.462;6.698;2023-07-13T00:09:58;15.25;75.59
67862;DHT22;54665;51.462;6.698;2023-07-13T00:11:59;15.27;75.55
67862;DHT22;54665;51.462;6.698;2023-07-13T00:13:59;15.21;76.06
67862;DHT22;54665;51.462;6.698;2023-07-13T00:15:59;15.24;75.69
67862;DHT22;54665;51.462;6.698;2023-07-13T00:17:59;15.21;75.86
67862;DHT22;54665;51.462;6.698;2023-07-13T00:20:00;15.23;76.23
67862;DHT22;54665;51.462;6.698;2023-07-13T00:22:00;15.18;75.56
67862;DHT22;54665;51.462;6.698;2023-07-13T00:24:00;15.30;74.60
67862;DHT22;54665;51.462;6.698;2023-07-13T00:26:06;15.42;74.58
67862;DHT22;54665;51.462;6.698;2023-07-13T00:28:06;15.56;73.62
67862;DHT22;54665;51.462;6.698;2023-07-13T00:30:07;15.59;73.84
67862;DHT22;54665;51.462;6.698;2023-07-13T00:32:08;15.65;72.99
67862;DHT22;54665;51.462;6.698;2023-07-13T00:34:08;15.67;73.18
67862;DHT22;54665;51.462;6.698;2023-07-13T00:36:09;15.58;73.44
67862;DHT22;54665;51.462;6.698;2023-07-13T00:38:10;15.48;73.88
67862;DHT22;54665;51.462;6.698;2023-07-13T00:40:14;15.46;74.15
67862;DHT22;54665;51.462;6.698;2023-07-13T00:42:14;15.32;74.36
67862;DHT22;54665;51.462;6.698;2023-07-13T00:44:15;15.27;75.20
67862;DHT22;54665;51.462;6.698;2023-07-13T00:46:24;15.18;75.68
67862;DHT22;54665;51.462;6.698;2023-07-13T00:48:33;15.07;76.12
67862;DHT22;54665;51.462;6.698;2023-07-13T00:50:34;14.98;75.90
67862;DHT22;54665;51.462;6.698;2023-07-13T00:52:36;14.85;76.45
67862;DHT22;54665;51.462;6.698;2023-07-13T00:54:43;14.84;77.05
67862;DHT22;54665;51.462;6.698;2023-07-13T00:56:47;14.85;76.46
67862;DHT22;54665;51.462;6.698;2023-07-13T00:58:48;14.77;77.27
67862;DHT22;54665;51.462;6.698;2023-07-13T01:00:50;14.72;77.30
67862;DHT22;54665;51.462;6.698;2023-07-13T01:02:52;14.74;77.65
67862;DHT22;54665;51.462;6.698;2023-07-13T01:04:52;14.66;77.99
67862;DHT22;54665;51.462;6.698;2023-07-13T01:06:52;14.66;77.90
67862;DHT22;54665;51.462;6.698;2023-07-13T01:08:53;14.55;77.94
67862;DHT22;54665;51.462;6.698;2023-07-13T01:10:56;14.55;78.20
67862;DHT22;54665;51.462;6.698;2023-07-13T01:12:57;14.47;78.42
67862;DHT22;54665;51.462;6.698;2023-07-13T01:14:58;14.43;78.38
67862;DHT22;54665;51.462;6.698;2023-07-13T01:16:58;14.46;78.28
67862;DHT22;54665;51.462;6.698;2023-07-13T01:18:59;14.55;77.91
67862;DHT22;54665;51.462;6.698;2023-07-13T01:21:02;14.57;78.29
67862;DHT22;54665;51.462;6.698;2023-07-13T01:23:07;14.88;76.65
67862;DHT22;54665;51.462;6.698;2023-07-13T01:25:07;14.84;77.11
67862;DHT22;54665;51.462;6.698;2023-07-13T01:27:09;14.83;76.90
67862;DHT22;54665;51.462;6.698;2023-07-13T01:29:10;14.91;76.95
67862;DHT22;54665;51.462;6.698;2023-07-13T01:31:13;14.91;77.31
67862;DHT22;54665;51.462;6.698;2023-07-13T01:33:15;14.91;76.92
67862;DHT22;54665;51.462;6.698;2023-07-13T01:35:16;15.07;76.65
67862;DHT22;54665;51.462;6.698;2023-07-13T01:37:16;14.98;77.00
67862;DHT22;54665;51.462;6.698;2023-07-13T01:39:17;14.93;77.21
67862;DHT22;54665;51.462;6.698;2023-07-13T01:41:17;14.80;77.74
67862;DHT22;54665;51.462;6.698;2023-07-13T01:43:18;14.74;78.11
67862;DHT22;54665;51.462;6.698;2023-07-13T01:45:18;14.91;77.39
67862;DHT22;54665;51.462;6.698;2023-07-13T01:47:19;14.79;77.83
67862;DHT22;54665;51.462;6.698;2023-07-13T01:49:19;14.85;78.04
67862;DHT22;54665;51.462;6.698;2023-07-13T01:51:20;14.81;77.65
67862;DHT22;54665;51.462;6.698;2023-07-13T01:53:20;14.77;77.84
67862;DHT22;54665;51.462;6.698;2023-07-13T01:55:21;14.80;77.88
67862;DHT22;54665;51.462;6.698;2023-07-13T01:57:22;14.72;77.99
67862;DHT22;54665;51.462;6.698;2023-07-13T01:59:22;14.66;78.58
67862;DHT22;54665;51.462;6.698;2023-07-13T02:01:22;14.63;78.49
67862;DHT22;54665;51.462;6.698;2023-07-13T02:03:23;14.57;78.92
67862;DHT22;54665;51.462;6.698;2023-07-13T02:05:23;14.56;79.10
67862;DHT22;54665;51.462;6.698;2023-07-13T02:07:23;14.63;78.89
67862;DHT22;54665;51.462;6.698;2023-07-13T02:09:23;14.72;78.92
67862;DHT22;54665;51.462;6.698;2023-07-13T02:11:24;14.64;79.10
67862;DHT22;54665;51.462;6.698;2023-07-13T02:13:24;14.63;79.11
67862;DHT22;54665;51.462;6.698;2023-07-13T02:15:25;14.53;79.20
67862;DHT22;54665;51.462;6.698;2023-07-13T02:17:26;14.40;79.65
67862;DHT22;54665;51.462;6.698;2023-07-13T02:19:26;14.39;79.82
67862;DHT22;54665;51.462;6.698;2023-07-13T02:21:27;14.33;80.13
67862;DHT22;54665;51.462;6.698;2023-07-13T02:23:27;14.25;80.12
67862;DHT22;54665;51.462;6.698;2023-07-13T02:25:27;14.21;80.33
67862;DHT22;54665;51.462;6.698;2023-07-13T02:27:28;14.12;80.76
67862;DHT22;54665;51.462;6.698;2023-07-13T02:29:28;14.12;80.96
67862;DHT22;54665;51.462;6.698;2023-07-13T02:31:28;14.13;80.64
67862;DHT22;54665;51.462;6.698;2023-07-13T02:33:29;14.15;80.40
67862;DHT22;54665;51.462;6.698;2023-07-13T02:35:29;14.23;80.07
67862;DHT22;54665;51.462;6.698;2023-07-13T02:37:31;14.29;79.90
67862;DHT22;54665;51.462;6.698;2023-07-13T02:39:31;14.39;79.42
67862;DHT22;54665;51.462;6.698;2023-07-13T02:41:32;14.44;79.34
67862;DHT22;54665;51.462;6.698;2023-07-13T02:43:33;14.47;79.46
67862;DHT22;54665;51.462;6.698;2023-07-13T02:45:34;14.42;79.76
67862;DHT22;54665;51.462;6.698;2023-07-13T02:47:35;14.39;79.77
67862;DHT22;54665;51.462;6.698;2023-07-13T02:49:35;14.40;80.12
67862;DHT22;54665;51.462;6.698;2023-07-13T02:51:36;14.39;80.14
67862;DHT22;54665;51.462;6.698;2023-07-13T02:53:37;14.33;80.03
67862;DHT22;54665;51.462;6.698;2023-07-13T02:55:37;14.29;80.18
67862;DHT22;54665;51.462;6.698;2023-07-13T02:57:37;14.28;80.56
67862;DHT22;54665;51.462;6.698;2023-07-13T02:59:38;14.25;80.61
67862;DHT22;54665;51.462;6.698;2023-07-13T03:01:38;14.25;80.71
67862;DHT22;54665;51.462;6.698;2023-07-13T03:03:39;14.15;80.98
67862;DHT22;54665;51.462;6.698;2023-07-13T03:05:41;14.12;81.02
67862;DHT22;54665;51.462;6.698;2023-07-13T03:07:41;14.11;80.97
67862;DHT22;54665;51.462;6.698;2023-07-13T03:09:43;14.08;81.22
67862;DHT22;54665;51.462;6.698;2023-07-13T03:11:43;14.02;81.25
67862;DHT22;54665;51.462;6.698;2023-07-13T03:14:05;13.98;81.42
67862;DHT22;54665;51.462;6.698;2023-07-13T03:16:10;14.04;81.37
67862;DHT22;54665;51.462;6.698;2023-07-13T03:18:10;14.00;81.51
67862;DHT22;54665;51.462;6.698;2023-07-13T03:20:11;14.11;81.65
67862;DHT22;54665;51.462;6.698;2023-07-13T03:22:12;14.11;81.61
67862;DHT22;54665;51.462;6.698;2023-07-13T03:24:15;14.09;81.57
67862;DHT22;54665;51.462;6.698;2023-07-13T03:26:18;14.13;81.51
67862;DHT22;54665;51.462;6.698;2023-07-13T03:28:18;14.23;81.39
67862;DHT22;54665;51.462;6.698;2023-07-13T03:30:19;14.30;81.37
67862;DHT22;54665;51.462;6.698;2023-07-13T03:32:19;14.46;80.64
67862;DHT22;54665;51.462;6.698;2023-07-13T03:34:20;14.44;80.97
67862;DHT22;54665;51.462;6.698;2023-07-13T03:36:22;14.50;80.85
67862;DHT22;54665;51.462;6.698;2023-07-13T03:38:24;14.52;80.61
67862;DHT22;54665;51.462;6.698;2023-07-13T03:40:27;14.47;80.62
67862;DHT22;54665;51.462;6.698;2023-07-13T03:42:27;14.49;81.10
67862;DHT22;54665;51.462;6.698;2023-07-13T03:44:28;14.43;80.70
67862;DHT22;54665;51.462;6.698;2023-07-13T03:46:31;14.46;80.85
67862;DHT22;54665;51.462;6.698;2023-07-13T03:48:31;14.44;80.81
67862;DHT22;54665;51.462;6.698;2023-07-13T03:50:32;14.44;80.97
67862;DHT22;54665;51.462;6.698;2023-07-13T03:52:32;14.52;81.27
67862;DHT22;54665;51.462;6.698;2023-07-13T03:54:32;14.53;80.88
67862;DHT22;54665;51.462;6.698;2023-07-13T03:56:33;14.55;80.85
67862;DHT22;54665;51.462;6.698;2023-07-13T03:58:38;14.57;80.68
67862;DHT22;54665;51.462;6.698;2023-07-13T04:00:46;14.59;80.84
67862;DHT22;54665;51.462;6.698;2023-07-13T04:02:46;14.52;81.05
67862;DHT22;54665;51.462;6.698;2023-07-13T04:04:47;14.46;81.23
67862;DHT22;54665;51.462;6.698;2023-07-13T04:06:47;14.43;81.51
67862;DHT22;54665;51.462;6.698;2023-07-13T04:08:49;14.40;81.51
67862;DHT22;54665;51.462;6.698;2023-07-13T04:10:50;14.43;81.75
67862;DHT22;54665;51.462;6.698;2023-07-13T04:12:51;14.47;81.58
67862;DHT22;54665;51.462;6.698;2023-07-13T04:14:51;14.55;81.39
67862;DHT22;54665;51.462;6.698;2023-07-13T04:16:51;14.55;81.43
67862;DHT22;54665;51.462;6.698;2023-07-13T04:18:52;14.53;81.53
67862;DHT22;54665;51.462;6.698;2023-07-13T04:20:53;14.53;81.55
67862;DHT22;54665;51.462;6.698;2023-07-13T04:22:53;14.49;81.84
67862;DHT22;54665;51.462;6.698;2023-07-13T04:24:53;14.50;81.89
67862;DHT22;54665;51.462;6.698;2023-07-13T04:26:53;14.50;82.03
67862;DHT22;54665;51.462;6.698;2023-07-13T04:28:54;14.52;81.92
67862;DHT22;54665;51.462;6.698;2023-07-13T04:30:54;14.62;81.95
67862;DHT22;54665;51.462;6.698;2023-07-13T04:32:55;14.59;81.70
67862;DHT22;54665;51.462;6.698;2023-07-13T04:34:55;14.62;82.14
67862;DHT22;54665;51.462;6.698;2023-07-13T04:36:55;14.59;82.17
67862;DHT22;54665;51.462;6.698;2023-07-13T04:38:56;14.60;81.85
67862;DHT22;54665;51.462;6.698;2023-07-13T04:40:57;14.70;82.01
67862;DHT22;54665;51.462;6.698;2023-07-13T04:42:58;14.73;81.68
67862;DHT22;54665;51.462;6.698;2023-07-13T04:44:58;14.76;82.15
67862;DHT22;54665;51.462;6.698;2023-07-13T04:46:58;14.77;81.75
67862;DHT22;54665;51.462;6.698;2023-07-13T04:48:59;14.85;81.71
67862;DHT22;54665;51.462;6.698;2023-07-13T04:50:59;14.93;81.47
67862;DHT22;54665;51.462;6.698;2023-07-13T04:53:00;14.95;81.58
67862;DHT22;54665;51.462;6.698;2023-07-13T04:55:00;14.97;81.73
67862;DHT22;54665;51.462;6.698;2023-07-13T04:57:00;15.03;81.29
67862;DHT22;54665;51.462;6.698;2023-07-13T04:59:01;15.08;81.27
67862;DHT22;54665;51.462;6.698;2023-07-13T05:01:03;15.12;81.25
67862;DHT22;54665;51.462;6.698;2023-07-13T05:03:03;15.18;80.94
67862;DHT22;54665;51.462;6.698;2023-07-13T05:05:04;15.18;81.35
67862;DHT22;54665;51.462;6.698;2023-07-13T05:07:05;15.27;81.29
67862;DHT22;54665;51.462;6.698;2023-07-13T05:09:05;15.28;81.05
67862;DHT22;54665;51.462;6.698;2023-07-13T05:11:06;15.32;81.26
67862;DHT22;54665;51.462;6.698;2023-07-13T05:13:06;15.38;81.38
67862;DHT22;54665;51.462;6.698;2023-07-13T05:15:07;15.42;81.18
67862;DHT22;54665;51.462;6.698;2023-07-13T05:17:07;15.51;80.96
67862;DHT22;54665;51.462;6.698;2023-07-13T05:19:08;15.54;80.72
67862;DHT22;54665;51.462;6.698;2023-07-13T05:21:10;15.58;80.86
67862;DHT22;54665;51.462;6.698;2023-07-13T05:23:11;15.63;80.78
67862;DHT22;54665;51.462;6.698;2023-07-13T05:25:11;15.69;80.58
67862;DHT22;54665;51.462;6.698;2023-07-13T05:27:11;15.76;80.84
67862;DHT22;54665;51.462;6.698;2023-07-13T05:29:12;15.75;80.37
67862;DHT22;54665;51.462;6.698;2023-07-13T05:31:13;15.86;80.37
67862;DHT22;54665;51.462;6.698;2023-07-13T05:33:13;15.87;80.50
67862;DHT22;54665;51.462;6.698;2023-07-13T05:35:14;15.92;80.40
67862;DHT22;54665;51.462;6.698;2023-07-13T05:37:14;16.00;80.27
67862;DHT22;54665;51.462;6.698;2023-07-13T05:39:15;16.03;80.08
67862;DHT22;54665;51.462;6.698;2023-07-13T05:41:15;16.05;79.76
67862;DHT22;54665;51.462;6.698;2023-07-13T05:43:15;16.10;79.93
67862;DHT22;54665;51.462;6.698;2023-07-13T05:45:16;16.16;79.45
67862;DHT22;54665;51.462;6.698;2023-07-13T05:47:16;16.31;79.53
67862;DHT22;54665;51.462;6.698;2023-07-13T05:49:16;16.43;79.61
67862;DHT22;54665;51.462;6.698;2023-07-13T05:51:17;16.50;79.14
67862;DHT22;54665;51.462;6.698;2023-07-13T05:53:17;16.41;79.26
67862;DHT22;54665;51.462;6.698;2023-07-13T05:55:18;16.33;79.89
67862;DHT22;54665;51.462;6.698;2023-07-13T05:57:18;16.55;79.20
67862;DHT22;54665;51.462;6.698;2023-07-13T05:59:18;16.71;79.03
67862;DHT22;54665;51.462;6.698;2023-07-13T06:01:19;16.82;78.38
67862;DHT22;54665;51.462;6.698;2023-07-13T06:03:19;16.95;78.26
67862;DHT22;54665;51.462;6.698;2023-07-13T06:05:19;16.82;78.27
67862;DHT22;54665;51.462;6.698;2023-07-13T06:07:19;17.01;78.24
67862;DHT22;54665;51.462;6.698;2023-07-13T06:09:20;17.09;77.43
67862;DHT22;54665;51.462;6.698;2023-07-13T06:11:23;17.19;77.31
67862;DHT22;54665;51.462;6.698;2023-07-13T06:13:24;17.09;77.70
67862;DHT22;54665;51.462;6.698;2023-07-13T06:15:24;17.02;77.62
67862;DHT22;54665;51.462;6.698;2023-07-13T06:17:25;17.08;77.75
67862;DHT22;54665;51.462;6.698;2023-07-13T06:19:25;17.16;77.63
67862;DHT22;54665;51.462;6.698;2023-07-13T06:21:25;17.29;77.92
67862;DHT22;54665;51.462;6.698;2023-07-13T06:23:26;17.14;77.26
67862;DHT22;54665;51.462;6.698;2023-07-13T06:25:26;17.27;77.73
67862;DHT22;54665;51.462;6.698;2023-07-13T06:27:27;17.27;77.26
67862;DHT22;54665;51.462;6.698;2023-07-13T06:29:27;17.26;77.91
67862;DHT22;54665;51.462;6.698;2023-07-13T06:31:27;17.43;77.54
67862;DHT22;54665;51.462;6.698;2023-07-13T06:33:27;17.59;76.59
67862;DHT22;54665;51.462;6.698;2023-07-13T06:35:28;17.73;76.63
67862;DHT22;54665;51.462;6.698;2023-07-13T06:37:28;18.05;75.64
67862;DHT22;54665;51.462;6.698;2023-07-13T06:39:28;18.17;76.88
67862;DHT22;54665;51.462;6.698;2023-07-13T06:41:29;17.81;75.90
67862;DHT22;54665;51.462;6.698;2023-07-13T06:43:29;18.12;76.20
67862;DHT22;54665;51.462;6.698;2023-07-13T06:45:29;18.09;76.02
67862;DHT22;54665;51.462;6.698;2023-07-13T06:47:30;18.04;76.36
67862;DHT22;54665;51.462;6.698;2023-07-13T06:49:30;17.94;75.99
67862;DHT22;54665;51.462;6.698;2023-07-13T06:51:31;17.67;76.38
67862;DHT22;54665;51.462;6.698;2023-07-13T06:53:31;17.70;77.59
67862;DHT22;54665;51.462;6.698;2023-07-13T06:55:31;17.87;76.68
67862;DHT22;54665;51.462;6.698;2023-07-13T06:57:31;17.96;76.71
67862;DHT22;54665;51.462;6.698;2023-07-13T06:59:32;17.94;75.90
67862;DHT22;54665;51.462;6.698;2023-07-13T07:01:32;17.91;75.47
67862;DHT22;54665;51.462;6.698;2023-07-13T07:03:32;18.19;75.85
67862;DHT22;54665;51.462;6.698;2023-07-13T07:05:33;18.45;75.47
67862;DHT22;54665;51.462;6.698;2023-07-13T07:07:33;18.34;74.86
67862;DHT22;54665;51.462;6.698;2023-07-13T07:09:33;18.55;74.37
67862;DHT22;54665;51.462;6.698;2023-07-13T07:11:33;18.85;75.48
67862;DHT22;54665;51.462;6.698;2023-07-13T07:13:34;18.69;73.75
67862;DHT22;54665;51.462;6.698;2023-07-13T07:15:35;18.80;73.20
67862;DHT22;54665;51.462;6.698;2023-07-13T07:17:35;18.66;74.27
67862;DHT22;54665;51.462;6.698;2023-07-13T07:19:35;18.82;73.31
67862;DHT22;54665;51.462;6.698;2023-07-13T07:21:35;18.63;73.73
67862;DHT22;54665;51.462;6.698;2023-07-13T07:23:36;18.79;73.81
67862;DHT22;54665;51.462;6.698;2023-07-13T07:25:36;18.37;74.62
67862;DHT22;54665;51.462;6.698;2023-07-13T07:27:36;18.18;75.62
67862;DHT22;54665;51.462;6.698;2023-07-13T07:29:37;18.52;74.45
67862;DHT22;54665;51.462;6.698;2023-07-13T07:31:37;18.73;74.16
67862;DHT22;54665;51.462;6.698;2023-07-13T07:33:37;18.68;74.50
67862;DHT22;54665;51.462;6.698;2023-07-13T07:35:38;18.85;74.32
67862;DHT22;54665;51.462;6.698;2023-07-13T07:37:38;18.96;74.92
67862;DHT22;54665;51.462;6.698;2023-07-13T07:39:39;19.10;73.20
67862;DHT22;54665;51.462;6.698;2023-07-13T07:41:39;19.17;72.51
67862;DHT22;54665;51.462;6.698;2023-07-13T07:43:40;19.11;71.89
67862;DHT22;54665;51.462;6.698;2023-07-13T07:45:40;19.07;73.12
67862;DHT22;54665;51.462;6.698;2023-07-13T07:47:40;19.30;72.11
67862;DHT22;54665;51.462;6.698;2023-07-13T07:49:41;19.58;71.60
67862;DHT22;54665;51.462;6.698;2023-07-13T07:51:41;19.62;70.57
67862;DHT22;54665;51.462;6.698;2023-07-13T07:53:41;19.41;70.65
67862;DHT22;54665;51.462;6.698;2023-07-13T07:55:42;19.75;71.57
67862;DHT22;54665;51.462;6.698;2023-07-13T07:57:42;19.77;70.38
67862;DHT22;54665;51.462;6.698;2023-07-13T07:59:42;19.79;69.64
67862;DHT22;54665;51.462;6.698;2023-07-13T08:01:43;19.72;69.56
67862;DHT22;54665;51.462;6.698;2023-07-13T08:03:43;19.72;70.94
67862;DHT22;54665;51.462;6.698;2023-07-13T08:05:43;19.95;71.33
67862;DHT22;54665;51.462;6.698;2023-07-13T08:07:43;19.72;70.24
67862;DHT22;54665;51.462;6.698;2023-07-13T08:09:44;20.30;69.32
67862;DHT22;54665;51.462;6.698;2023-07-13T08:11:44;20.84;67.75
67862;DHT22;54665;51.462;6.698;2023-07-13T08:13:44;20.90;68.46
67862;DHT22;54665;51.462;6.698;2023-07-13T08:15:46;21.20;66.75
67862;DHT22;54665;51.462;6.698;2023-07-13T08:17:49;21.89;65.64
67862;DHT22;54665;51.462;6.698;2023-07-13T08:19:50;21.72;65.38
67862;DHT22;54665;51.462;6.698;2023-07-13T08:21:51;21.35;66.59
67862;DHT22;54665;51.462;6.698;2023-07-13T08:23:51;21.76;65.94
67862;DHT22;54665;51.462;6.698;2023-07-13T08:25:52;21.83;64.90
67862;DHT22;54665;51.462;6.698;2023-07-13T08:27:52;21.96;65.65
67862;DHT22;54665;51.462;6.698;2023-07-13T08:29:53;20.91;66.88
67862;DHT22;54665;51.462;6.698;2023-07-13T08:31:54;20.81;66.31
67862;DHT22;54665;51.462;6.698;2023-07-13T08:33:54;20.42;68.72
67862;DHT22;54665;51.462;6.698;2023-07-13T08:35:54;21.00;66.92
67862;DHT22;54665;51.462;6.698;2023-07-13T08:37:55;20.90;66.74
67862;DHT22;54665;51.462;6.698;2023-07-13T08:39:55;21.02;66.74
67862;DHT22;54665;51.462;6.698;2023-07-13T08:42:01;21.08;67.81
67862;DHT22;54665;51.462;6.698;2023-07-13T08:44:02;21.20;66.49
67862;DHT22;54665;51.462;6.698;2023-07-13T08:46:13;21.35;65.98
67862;DHT22;54665;51.462;6.698;2023-07-13T08:48:24;21.35;66.44
67862;DHT22;54665;51.462;6.698;2023-07-13T08:50:33;21.65;65.72
67862;DHT22;54665;51.462;6.698;2023-07-13T08:52:38;22.30;64.55
67862;DHT22;54665;51.462;6.698;2023-07-13T08:54:44;22.72;63.11
67862;DHT22;54665;51.462;6.698;2023-07-13T08:56:45;22.33;63.68
67862;DHT22;54665;51.462;6.698;2023-07-13T08:58:51;22.00;66.20
67862;DHT22;54665;51.462;6.698;2023-07-13T09:01:04;20.80;67.01
67862;DHT22;54665;51.462;6.698;2023-07-13T09:03:12;20.77;67.32
67862;DHT22;54665;51.462;6.698;2023-07-13T09:07:44;21.31;67.53
67862;DHT22;54665;51.462;6.698;2023-07-13T09:14:39;21.48;65.87
67862;DHT22;54665;51.462;6.698;2023-07-13T09:16:41;21.31;66.15
67862;DHT22;54665;51.462;6.698;2023-07-13T09:18:45;21.04;67.55
67862;DHT22;54665;51.462;6.698;2023-07-13T09:20:50;21.35;67.00
67862;DHT22;54665;51.462;6.698;2023-07-13T09:22:52;21.34;67.16
67862;DHT22;54665;51.462;6.698;2023-07-13T09:25:05;21.86;67.34
67862;DHT22;54665;51.462;6.698;2023-07-13T09:27:13;21.92;65.33
67862;DHT22;54665;51.462;6.698;2023-07-13T09:29:26;22.17;64.22
67862;DHT22;54665;51.462;6.698;2023-07-13T09:31:37;22.20;64.24
67862;DHT22;54665;51.462;6.698;2023-07-13T09:33:38;22.17;63.98
67862;DHT22;54665;51.462;6.698;2023-07-13T09:35:38;21.71;64.39
67862;DHT22;54665;51.462;6.698;2023-07-13T09:37:39;20.98;66.35
67862;DHT22;54665;51.462;6.698;2023-07-13T09:39:40;20.64;67.45
67862;DHT22;54665;51.462;6.698;2023-07-13T09:42:01;20.54;67.75
67862;DHT22;54665;51.462;6.698;2023-07-13T09:44:15;20.40;68.21
67862;DHT22;54665;51.462;6.698;2023-07-13T09:46:20;20.30;69.53
67862;DHT22;54665;51.462;6.698;2023-07-13T09:48:21;21.25;68.21
67862;DHT22;54665;51.462;6.698;2023-07-13T09:50:21;21.65;66.46
67862;DHT22;54665;51.462;6.698;2023-07-13T09:52:22;21.85;64.04
67862;DHT22;54665;51.462;6.698;2023-07-13T09:54:24;22.44;64.12
67862;DHT22;54665;51.462;6.698;2023-07-13T09:56:29;23.29;62.69
67862;DHT22;54665;51.462;6.698;2023-07-13T09:58:30;23.46;61.39
67862;DHT22;54665;51.462;6.698;2023-07-13T10:00:30;23.52;60.36
67862;DHT22;54665;51.462;6.698;2023-07-13T10:02:33;23.45;58.99
67862;DHT22;54665;51.462;6.698;2023-07-13T10:04:34;22.79;61.39
67862;DHT22;54665;51.462;6.698;2023-07-13T10:06:34;22.57;61.06
67862;DHT22;54665;51.462;6.698;2023-07-13T10:08:35;22.57;62.21
67862;DHT22;54665;51.462;6.698;2023-07-13T10:10:35;22.67;60.96
67862;DHT22;54665;51.462;6.698;2023-07-13T10:12:37;23.81;58.46
67862;DHT22;54665;51.462;6.698;2023-07-13T10:14:38;24.44;56.43
67862;DHT22;54665;51.462;6.698;2023-07-13T10:16:41;24.39;55.20
67862;DHT22;54665;51.462;6.698;2023-07-13T10:19:04;22.95;59.46
67862;DHT22;54665;51.462;6.698;2023-07-13T10:21:14;22.57;59.10
67862;DHT22;54665;51.462;6.698;2023-07-13T10:23:21;23.45;58.34
67862;DHT22;54665;51.462;6.698;2023-07-13T10:25:26;24.21;57.06
67862;DHT22;54665;51.462;6.698;2023-07-13T10:27:35;23.19;58.68
67862;DHT22;54665;51.462;6.698;2023-07-13T10:30:09;24.01;57.63
67862;DHT22;54665;51.462;6.698;2023-07-13T10:32:12;25.07;54.47
67862;DHT22;54665;51.462;6.698;2023-07-13T10:34:13;24.72;52.19
67862;DHT22;54665;51.462;6.698;2023-07-13T10:36:20;23.94;54.72
67862;DHT22;54665;51.462;6.698;2023-07-13T10:38:23;22.50;58.69
67862;DHT22;54665;51.462;6.698;2023-07-13T10:40:27;22.14;59.36
67862;DHT22;54665;51.462;6.698;2023-07-13T10:42:35;21.99;59.24
67862;DHT22;54665;51.462;6.698;2023-07-13T10:44:37;22.17;60.16
67862;DHT22;54665;51.462;6.698;2023-07-13T10:46:37;22.82;60.74
67862;DHT22;54665;51.462;6.698;2023-07-13T10:48:39;23.52;57.67
67862;DHT22;54665;51.462;6.698;2023-07-13T10:50:42;23.81;57.27
67862;DHT22;54665;51.462;6.698;2023-07-13T10:52:48;23.94;55.55
67862;DHT22;54665;51.462;6.698;2023-07-13T10:54:49;24.73;55.88
67862;DHT22;54665;51.462;6.698;2023-07-13T10:56:52;24.27;55.43
67862;DHT22;54665;51.462;6.698;2023-07-13T11:03:14;25.02;53.91
67862;DHT22;54665;51.462;6.698;2023-07-13T11:07:27;25.81;53.92
67862;DHT22;54665;51.462;6.698;2023-07-13T11:09:38;25.71;52.99
67862;DHT22;54665;51.462;6.698;2023-07-13T11:11:38;25.71;55.28
67862;DHT22;54665;51.462;6.698;2023-07-13T11:15:48;25.84;52.12
67862;DHT22;54665;51.462;6.698;2023-07-13T11:17:51;26.11;48.97
67862;DHT22;54665;51.462;6.698;2023-07-13T11:19:51;25.84;51.57
67862;DHT22;54665;51.462;6.698;2023-07-13T11:24:15;25.75;52.79
67862;DHT22;54665;51.462;6.698;2023-07-13T11:26:38;25.84;49.41
67862;DHT22;54665;51.462;6.698;2023-07-13T11:28:38;26.33;48.81
67862;DHT22;54665;51.462;6.698;2023-07-13T11:35:13;25.80;48.40
67862;DHT22;54665;51.462;6.698;2023-07-13T11:37:17;25.80;49.81
67862;DHT22;54665;51.462;6.698;2023-07-13T11:41:33;24.76;52.12
67862;DHT22;54665;51.462;6.698;2023-07-13T11:43:35;24.75;49.89
67862;DHT22;54665;51.462;6.698;2023-07-13T11:45:35;25.48;50.01
67862;DHT22;54665;51.462;6.698;2023-07-13T11:47:40;24.79;49.14
67862;DHT22;54665;51.462;6.698;2023-07-13T11:49:45;24.68;49.75
67862;DHT22;54665;51.462;6.698;2023-07-13T11:51:46;25.30;51.67
67862;DHT22;54665;51.462;6.698;2023-07-13T11:53:49;25.02;51.15
67862;DHT22;54665;51.462;6.698;2023-07-13T11:55:50;25.22;49.65
67862;DHT22;54665;51.462;6.698;2023-07-13T11:57:51;24.31;50.44
67862;DHT22;54665;51.462;6.698;2023-07-13T11:59:55;24.25;50.86
67862;DHT22;54665;51.462;6.698;2023-07-13T12:01:56;24.15;50.67
67862;DHT22;54665;51.462;6.698;2023-07-13T12:06:32;24.11;51.67
67862;DHT22;54665;51.462;6.698;2023-07-13T12:08:38;24.13;52.07
67862;DHT22;54665;51.462;6.698;2023-07-13T12:10:39;23.94;53.61
67862;DHT22;54665;51.462;6.698;2023-07-13T12:12:46;24.21;53.64
67862;DHT22;54665;51.462;6.698;2023-07-13T12:14:51;23.93;51.51
67862;DHT22;54665;51.462;6.698;2023-07-13T12:16:51;23.76;52.26
67862;DHT22;54665;51.462;6.698;2023-07-13T12:18:52;24.38;53.10
67862;DHT22;54665;51.462;6.698;2023-07-13T12:20:58;23.47;53.08
67862;DHT22;54665;51.462;6.698;2023-07-13T12:22:58;23.25;53.96
67862;DHT22;54665;51.462;6.698;2023-07-13T12:24:59;23.27;54.06
67862;DHT22;54665;51.462;6.698;2023-07-13T12:27:01;23.20;54.40
67862;DHT22;54665;51.462;6.698;2023-07-13T12:29:05;22.57;54.61
67862;DHT22;54665;51.462;6.698;2023-07-13T12:31:23;22.32;55.82
67862;DHT22;54665;51.462;6.698;2023-07-13T12:33:28;21.90;56.72
67862;DHT22;54665;51.462;6.698;2023-07-13T12:35:30;21.79;57.16
67862;DHT22;54665;51.462;6.698;2023-07-13T12:37:34;21.78;57.11
67862;DHT22;54665;51.462;6.698;2023-07-13T12:39:37;21.69;56.84
67862;DHT22;54665;51.462;6.698;2023-07-13T12:41:38;21.59;57.77
67862;DHT22;54665;51.462;6.698;2023-07-13T12:43:38;21.69;56.79
67862;DHT22;54665;51.462;6.698;2023-07-13T12:45:57;21.72;56.91
67862;DHT22;54665;51.462;6.698;2023-07-13T12:48:15;21.61;57.52
67862;DHT22;54665;51.462;6.698;2023-07-13T12:50:20;21.62;57.96
67862;DHT22;54665;51.462;6.698;2023-07-13T12:52:24;21.39;62.73
67862;DHT22;54665;51.462;6.698;2023-07-13T12:54:24;20.85;65.40
67862;DHT22;54665;51.462;6.698;2023-07-13T12:56:27;20.87;67.36
67862;DHT22;54665;51.462;6.698;2023-07-13T12:58:39;20.90;66.92
67862;DHT22;54665;51.462;6.698;2023-07-13T13:00:40;20.98;67.90
67862;DHT22;54665;51.462;6.698;2023-07-13T13:02:40;21.25;65.53
67862;DHT22;54665;51.462;6.698;2023-07-13T13:04:41;21.69;62.45
67862;DHT22;54665;51.462;6.698;2023-07-13T13:06:41;22.10;61.84
67862;DHT22;54665;51.462;6.698;2023-07-13T13:08:42;22.48;58.21
67862;DHT22;54665;51.462;6.698;2023-07-13T13:10:42;22.91;56.34
67862;DHT22;54665;51.462;6.698;2023-07-13T13:12:42;23.05;57.20
67862;DHT22;54665;51.462;6.698;2023-07-13T13:14:43;23.45;55.64
67862;DHT22;54665;51.462;6.698;2023-07-13T13:16:47;23.90;54.55
67862;DHT22;54665;51.462;6.698;2023-07-13T13:18:49;23.22;54.11